sensor_id;sensor_type;location;lat;lon;timestamp;pressure;altitude;pressure_sealevel;temperature;humidity
71424;BME280;59240;51.370;-0.486;2023-02-14T00:00:34;103036.31;;;2.39;72.49
71424;BME280;59240;51.370;-0.486;2023-02-14T00:03:31;103088.94;;;2.63;71.16
71424;BME280;59240;51.370;-0.486;2023-02-14T00:06:24;103134.53;;;2.84;72.37
71424;BME280;59240;51.370;-0.486;2023-02-14T00:09:09;103028.81;;;2.26;71.67
71424;BME280;59240;51.370;-0.486;2023-02-14T00:11:48;103062.91;;;2.39;71.56
71424;BME280;59240;51.370;-0.486;2023-02-14T00:14:36;103082.91;;;2.45;72.62
71424;BME280;59240;51.370;-0.486;2023-02-14T00:17:55;103064.81;;;2.26;71.72
71424;BME280;59240;51.370;-0.486;2023-02-14T00:21:00;103153.78;;;2.74;72.81
71424;BME280;59240;51.370;-0.486;2023-02-14T00:23:43;103118.28;;;2.49;72.11
71424;BME280;59240;51.370;-0.486;2023-02-14T00:26:42;103088.25;;;2.32;71.98
71424;BME280;59240;51.370;-0.486;2023-02-14T00:29:31;103099.38;;;2.31;71.83
71424;BME280;59240;51.370;-0.486;2023-02-14T00:33:04;103117.81;;;2.40;72.46
71424;BME280;59240;51.370;-0.486;2023-02-14T00:39:30;103028.78;;;1.90;71.67
71424;BME280;59240;51.370;-0.486;2023-02-14T00:46:44;103020.69;;;1.82;73.02
71424;BME280;59240;51.370;-0.486;2023-02-14T00:49:55;103116.63;;;2.33;72.55
71424;BME280;59240;51.370;-0.486;2023-02-14T00:55:24;103138.63;;;2.44;71.19
71424;BME280;59240;51.370;-0.486;2023-02-14T00:57:55;103105.66;;;2.19;71.83
71424;BME280;59240;51.370;-0.486;2023-02-14T01:00:28;103091.72;;;2.14;72.00
71424;BME280;59240;51.370;-0.486;2023-02-14T01:03:00;103033.41;;;1.79;71.76
71424;BME280;59240;51.370;-0.486;2023-02-14T01:06:07;103103.75;;;2.15;72.19
71424;BME280;59240;51.370;-0.486;2023-02-14T01:09:06;103050.66;;;1.82;71.43
71424;BME280;59240;51.370;-0.486;2023-02-14T01:11:40;103025.00;;;1.66;72.25
71424;BME280;59240;51.370;-0.486;2023-02-14T01:14:21;103090.97;;;1.99;72.58
71424;BME280;59240;51.370;-0.486;2023-02-14T01:16:51;103097.13;;;2.03;71.84
71424;BME280;59240;51.370;-0.486;2023-02-14T01:19:23;103048.44;;;1.72;72.60
71424;BME280;59240;51.370;-0.486;2023-02-14T01:21:53;103090.03;;;1.99;71.92
71424;BME280;59240;51.370;-0.486;2023-02-14T01:24:40;103104.19;;;2.07;72.49
71424;BME280;59240;51.370;-0.486;2023-02-14T01:27:33;103113.59;;;2.06;73.06
71424;BME280;59240;51.370;-0.486;2023-02-14T01:30:32;103073.94;;;1.85;72.34
71424;BME280;59240;51.370;-0.486;2023-02-14T01:33:00;103024.38;;;1.53;71.93
71424;BME280;59240;51.370;-0.486;2023-02-14T01:36:00;103025.19;;;1.52;73.00
71424;BME280;59240;51.370;-0.486;2023-02-14T01:38:30;103059.50;;;1.71;72.88
71424;BME280;59240;51.370;-0.486;2023-02-14T01:40:58;103064.75;;;1.72;72.68
71424;BME280;59240;51.370;-0.486;2023-02-14T01:48:04;103032.50;;;1.45;72.87
71424;BME280;59240;51.370;-0.486;2023-02-14T01:50:42;103022.00;;;1.40;72.31
71424;BME280;59240;51.370;-0.486;2023-02-14T01:53:25;103039.41;;;1.46;72.32
71424;BME280;59240;51.370;-0.486;2023-02-14T01:56:05;103069.31;;;1.61;72.61
71424;BME280;59240;51.370;-0.486;2023-02-14T01:58:52;103062.03;;;1.53;72.45
71424;BME280;59240;51.370;-0.486;2023-02-14T02:10:32;103116.66;;;1.83;73.06
71424;BME280;59240;51.370;-0.486;2023-02-14T02:13:46;103096.28;;;1.70;73.27
71424;BME280;59240;51.370;-0.486;2023-02-14T02:23:47;102998.25;;;1.12;73.61
71424;BME280;59240;51.370;-0.486;2023-02-14T02:38:13;103113.88;;;1.62;74.17
71424;BME280;59240;51.370;-0.486;2023-02-14T02:46:39;103106.97;;;1.61;73.84
71424;BME280;59240;51.370;-0.486;2023-02-14T02:49:56;103107.84;;;1.61;73.74
71424;BME280;59240;51.370;-0.486;2023-02-14T02:57:17;103031.84;;;1.16;73.84
71424;BME280;59240;51.370;-0.486;2023-02-14T02:59:53;103021.03;;;1.05;73.26
71424;BME280;59240;51.370;-0.486;2023-02-14T03:02:32;103052.97;;;1.27;73.37
71424;BME280;59240;51.370;-0.486;2023-02-14T03:05:20;103065.00;;;1.28;73.14
71424;BME280;59240;51.370;-0.486;2023-02-14T03:07:47;103044.78;;;1.18;72.88
71424;BME280;59240;51.370;-0.486;2023-02-14T03:10:24;103057.97;;;1.24;74.01
71424;BME280;59240;51.370;-0.486;2023-02-14T03:12:56;103091.47;;;1.43;73.23
71424;BME280;59240;51.370;-0.486;2023-02-14T03:27:00;103085.25;;;1.38;75.02
71424;BME280;59240;51.370;-0.486;2023-02-14T03:32:37;103060.03;;;1.31;75.23
71424;BME280;59240;51.370;-0.486;2023-02-14T03:35:17;103044.13;;;1.22;74.19
71424;BME280;59240;51.370;-0.486;2023-02-14T03:38:10;103033.72;;;1.19;74.82
71424;BME280;59240;51.370;-0.486;2023-02-14T03:41:06;103086.03;;;1.53;75.24
71424;BME280;59240;51.370;-0.486;2023-02-14T03:43:53;102974.94;;;0.91;74.77
71424;BME280;59240;51.370;-0.486;2023-02-14T03:46:33;102979.50;;;0.96;74.16
71424;BME280;59240;51.370;-0.486;2023-02-14T03:49:11;102983.16;;;1.01;75.14
71424;BME280;59240;51.370;-0.486;2023-02-14T03:51:51;103013.50;;;1.25;74.96
71424;BME280;59240;51.370;-0.486;2023-02-14T03:54:26;102994.41;;;1.20;74.82
71424;BME280;59240;51.370;-0.486;2023-02-14T04:00:26;102974.50;;;1.16;75.68
71424;BME280;59240;51.370;-0.486;2023-02-14T04:03:10;102969.84;;;1.25;75.84
71424;BME280;59240;51.370;-0.486;2023-02-14T04:06:10;103048.28;;;1.69;75.71
71424;BME280;59240;51.370;-0.486;2023-02-14T04:08:41;103003.59;;;1.49;75.46
71424;BME280;59240;51.370;-0.486;2023-02-14T04:11:09;103025.78;;;1.64;75.96
71424;BME280;59240;51.370;-0.486;2023-02-14T04:13:37;103026.09;;;1.71;75.34
71424;BME280;59240;51.370;-0.486;2023-02-14T04:16:10;103022.59;;;1.69;75.89
71424;BME280;59240;51.370;-0.486;2023-02-14T04:18:43;103038.63;;;1.81;75.47
71424;BME280;59240;51.370;-0.486;2023-02-14T04:21:37;103009.72;;;1.69;75.63
71424;BME280;59240;51.370;-0.486;2023-02-14T04:24:20;102989.69;;;1.61;75.18
71424;BME280;59240;51.370;-0.486;2023-02-14T04:27:10;102988.56;;;1.56;75.42
71424;BME280;59240;51.370;-0.486;2023-02-14T04:30:02;103034.44;;;1.83;75.85
71424;BME280;59240;51.370;-0.486;2023-02-14T04:36:19;103014.06;;;1.70;75.77
71424;BME280;59240;51.370;-0.486;2023-02-14T04:46:45;103050.41;;;1.94;75.63
71424;BME280;59240;51.370;-0.486;2023-02-14T04:49:18;103046.78;;;1.90;75.63
71424;BME280;59240;51.370;-0.486;2023-02-14T04:51:45;103027.22;;;1.76;76.18
71424;BME280;59240;51.370;-0.486;2023-02-14T04:54:22;102981.34;;;1.49;75.96
71424;BME280;59240;51.370;-0.486;2023-02-14T04:56:54;103020.97;;;1.71;76.07
71424;BME280;59240;51.370;-0.486;2023-02-14T05:04:25;103004.47;;;1.49;76.29
71424;BME280;59240;51.370;-0.486;2023-02-14T05:08:05;102997.13;;;1.39;75.86
71424;BME280;59240;51.370;-0.486;2023-02-14T05:10:53;102993.88;;;1.43;75.38
71424;BME280;59240;51.370;-0.486;2023-02-14T05:13:36;103055.34;;;1.73;76.05
71424;BME280;59240;51.370;-0.486;2023-02-14T05:16:14;102996.13;;;1.37;75.82
71424;BME280;59240;51.370;-0.486;2023-02-14T05:18:56;102983.00;;;1.31;76.30
71424;BME280;59240;51.370;-0.486;2023-02-14T05:21:29;103047.00;;;1.60;75.39
71424;BME280;59240;51.370;-0.486;2023-02-14T05:24:09;102982.69;;;1.25;76.21
71424;BME280;59240;51.370;-0.486;2023-02-14T05:26:39;103003.78;;;1.35;75.55
71424;BME280;59240;51.370;-0.486;2023-02-14T05:29:16;102995.94;;;1.32;75.75
71424;BME280;59240;51.370;-0.486;2023-02-14T05:32:05;103030.09;;;1.48;75.97
71424;BME280;59240;51.370;-0.486;2023-02-14T05:35:07;103038.34;;;1.58;76.07
71424;BME280;59240;51.370;-0.486;2023-02-14T05:37:57;103086.06;;;1.87;76.81
71424;BME280;59240;51.370;-0.486;2023-02-14T05:40:30;103051.47;;;1.64;75.39
71424;BME280;59240;51.370;-0.486;2023-02-14T05:43:03;103051.34;;;1.61;75.48
71424;BME280;59240;51.370;-0.486;2023-02-14T05:45:34;103057.34;;;1.62;75.25
71424;BME280;59240;51.370;-0.486;2023-02-14T05:48:09;103073.41;;;1.74;75.30
71424;BME280;59240;51.370;-0.486;2023-02-14T05:50:47;103002.88;;;1.35;75.33
71424;BME280;59240;51.370;-0.486;2023-02-14T05:53:22;103017.50;;;1.36;75.66
71424;BME280;59240;51.370;-0.486;2023-02-14T05:55:49;103061.63;;;1.61;76.34
71424;BME280;59240;51.370;-0.486;2023-02-14T05:58:16;103065.31;;;1.67;76.24
71424;BME280;59240;51.370;-0.486;2023-02-14T06:01:10;103003.69;;;1.34;76.76
71424;BME280;59240;51.370;-0.486;2023-02-14T06:04:27;102956.53;;;1.16;75.63
71424;BME280;59240;51.370;-0.486;2023-02-14T06:07:51;103022.63;;;1.52;76.09
71424;BME280;59240;51.370;-0.486;2023-02-14T06:10:53;103026.94;;;1.53;76.06
71424;BME280;59240;51.370;-0.486;2023-02-14T06:13:46;103059.69;;;1.74;77.15
71424;BME280;59240;51.370;-0.486;2023-02-14T06:17:09;102988.28;;;1.34;76.42
71424;BME280;59240;51.370;-0.486;2023-02-14T06:20:02;103053.59;;;1.72;76.98
71424;BME280;59240;51.370;-0.486;2023-02-14T06:27:09;103000.50;;;1.38;77.60
71424;BME280;59240;51.370;-0.486;2023-02-14T06:31:35;103035.78;;;1.58;76.29
71424;BME280;59240;51.370;-0.486;2023-02-14T06:38:38;103104.09;;;2.05;77.53
71424;BME280;59240;51.370;-0.486;2023-02-14T06:41:35;103023.88;;;1.60;76.20
71424;BME280;59240;51.370;-0.486;2023-02-14T06:44:51;103006.41;;;1.53;76.19
71424;BME280;59240;51.370;-0.486;2023-02-14T06:48:57;103052.41;;;1.83;76.89
71424;BME280;59240;51.370;-0.486;2023-02-14T06:52:30;103108.03;;;2.15;77.45
71424;BME280;59240;51.370;-0.486;2023-02-14T06:56:42;103071.91;;;1.96;77.39
71424;BME280;59240;51.370;-0.486;2023-02-14T07:00:03;102995.06;;;1.50;77.13
71424;BME280;59240;51.370;-0.486;2023-02-14T07:02:53;103030.16;;;1.66;76.46
71424;BME280;59240;51.370;-0.486;2023-02-14T07:05:56;103047.63;;;1.73;77.17
71424;BME280;59240;51.370;-0.486;2023-02-14T07:09:04;103065.94;;;1.79;77.21
71424;BME280;59240;51.370;-0.486;2023-02-14T07:11:59;103051.78;;;1.71;77.52
71424;BME280;59240;51.370;-0.486;2023-02-14T07:19:05;103104.75;;;2.01;76.96
71424;BME280;59240;51.370;-0.486;2023-02-14T07:21:50;103087.09;;;1.91;77.46
71424;BME280;59240;51.370;-0.486;2023-02-14T07:25:00;103057.03;;;1.72;78.17
71424;BME280;59240;51.370;-0.486;2023-02-14T07:28:19;103072.03;;;1.81;77.49
71424;BME280;59240;51.370;-0.486;2023-02-14T07:32:10;103056.44;;;1.78;78.01
71424;BME280;59240;51.370;-0.486;2023-02-14T07:35:20;103069.53;;;1.82;78.25
71424;BME280;59240;51.370;-0.486;2023-02-14T07:39:03;103080.19;;;1.90;77.87
71424;BME280;59240;51.370;-0.486;2023-02-14T07:42:12;103080.44;;;1.95;77.39
71424;BME280;59240;51.370;-0.486;2023-02-14T07:45:18;103099.19;;;2.10;76.71
71424;BME280;59240;51.370;-0.486;2023-02-14T07:48:34;103098.53;;;2.14;78.26
71424;BME280;59240;51.370;-0.486;2023-02-14T07:51:50;103088.16;;;2.12;77.06
71424;BME280;59240;51.370;-0.486;2023-02-14T07:54:19;103096.28;;;2.20;77.12
71424;BME280;59240;51.370;-0.486;2023-02-14T07:57:17;103095.53;;;2.23;76.94
71424;BME280;59240;51.370;-0.486;2023-02-14T07:59:44;103094.09;;;2.28;77.37
71424;BME280;59240;51.370;-0.486;2023-02-14T08:02:26;103039.75;;;2.04;77.50
71424;BME280;59240;51.370;-0.486;2023-02-14T08:05:03;103092.75;;;2.36;76.93
71424;BME280;59240;51.370;-0.486;2023-02-14T08:07:30;103141.59;;;2.70;76.62
71424;BME280;59240;51.370;-0.486;2023-02-14T08:10:02;103070.25;;;2.32;77.21
71424;BME280;59240;51.370;-0.486;2023-02-14T08:12:45;103049.38;;;2.26;77.15
71424;BME280;59240;51.370;-0.486;2023-02-14T08:15:57;103086.59;;;2.50;76.89
71424;BME280;59240;51.370;-0.486;2023-02-14T08:18:38;103126.06;;;2.68;77.49
71424;BME280;59240;51.370;-0.486;2023-02-14T08:21:07;103092.25;;;2.43;77.49
71424;BME280;59240;51.370;-0.486;2023-02-14T08:23:39;103105.72;;;2.55;77.82
71424;BME280;59240;51.370;-0.486;2023-02-14T08:26:25;103118.00;;;2.61;77.22
71424;BME280;59240;51.370;-0.486;2023-02-14T08:29:02;103058.44;;;2.35;78.44
71424;BME280;59240;51.370;-0.486;2023-02-14T08:31:29;103083.19;;;2.51;77.46
71424;BME280;59240;51.370;-0.486;2023-02-14T08:34:06;103125.41;;;2.72;77.63
71424;BME280;59240;51.370;-0.486;2023-02-14T08:36:33;103162.63;;;2.97;77.43
71424;BME280;59240;51.370;-0.486;2023-02-14T08:39:00;103146.06;;;2.92;77.73
71424;BME280;59240;51.370;-0.486;2023-02-14T08:41:37;103085.56;;;2.64;77.65
71424;BME280;59240;51.370;-0.486;2023-02-14T08:44:19;103048.66;;;2.46;77.33
71424;BME280;59240;51.370;-0.486;2023-02-14T08:47:00;103100.41;;;2.70;77.70
71424;BME280;59240;51.370;-0.486;2023-02-14T08:49:46;103071.38;;;2.55;78.12
71424;BME280;59240;51.370;-0.486;2023-02-14T08:52:20;103110.25;;;2.79;77.73
71424;BME280;59240;51.370;-0.486;2023-02-14T08:54:52;103085.09;;;2.73;77.27
71424;BME280;59240;51.370;-0.486;2023-02-14T08:57:37;103068.66;;;2.69;77.23
71424;BME280;59240;51.370;-0.486;2023-02-14T09:05:05;103051.72;;;2.74;77.81
71424;BME280;59240;51.370;-0.486;2023-02-14T09:08:21;103089.22;;;3.07;78.27
71424;BME280;59240;51.370;-0.486;2023-02-14T09:11:00;103093.78;;;3.12;77.58
71424;BME280;59240;51.370;-0.486;2023-02-14T09:14:07;103056.34;;;3.01;77.86
71424;BME280;59240;51.370;-0.486;2023-02-14T09:16:56;103075.16;;;3.18;78.20
71424;BME280;59240;51.370;-0.486;2023-02-14T09:19:51;103083.22;;;3.25;77.63
71424;BME280;59240;51.370;-0.486;2023-02-14T09:22:42;103065.19;;;3.25;78.72
71424;BME280;59240;51.370;-0.486;2023-02-14T09:26:17;103092.13;;;3.51;78.04
71424;BME280;59240;51.370;-0.486;2023-02-14T09:29:07;103146.31;;;3.92;78.78
71424;BME280;59240;51.370;-0.486;2023-02-14T09:32:21;103062.81;;;3.49;77.84
71424;BME280;59240;51.370;-0.486;2023-02-14T09:35:17;103047.50;;;3.52;78.10
71424;BME280;59240;51.370;-0.486;2023-02-14T09:38:00;103067.88;;;3.67;78.24
71424;BME280;59240;51.370;-0.486;2023-02-14T09:48:45;103138.78;;;4.38;77.87
71424;BME280;59240;51.370;-0.486;2023-02-14T09:53:12;103111.09;;;4.34;77.96
71424;BME280;59240;51.370;-0.486;2023-02-14T09:56:07;103087.19;;;4.17;78.58
71424;BME280;59240;51.370;-0.486;2023-02-14T10:47:21;103103.69;;;5.31;77.46
71424;BME280;59240;51.370;-0.486;2023-02-14T11:05:48;103013.63;;;5.18;77.45
71424;BME280;59240;51.370;-0.486;2023-02-14T11:21:56;103080.34;;;6.01;76.95
71424;BME280;59240;51.370;-0.486;2023-02-14T11:33:44;103039.66;;;6.23;77.86
71424;BME280;59240;51.370;-0.486;2023-02-14T11:41:54;102983.53;;;6.22;77.67
71424;BME280;59240;51.370;-0.486;2023-02-14T11:45:38;103055.00;;;6.72;77.02
71424;BME280;59240;51.370;-0.486;2023-02-14T11:49:22;102981.53;;;6.40;77.60
71424;BME280;59240;51.370;-0.486;2023-02-14T11:56:47;102981.25;;;6.60;77.75
71424;BME280;59240;51.370;-0.486;2023-02-14T12:04:38;103004.06;;;7.01;77.88
71424;BME280;59240;51.370;-0.486;2023-02-14T12:07:54;103044.13;;;7.44;77.80
71424;BME280;59240;51.370;-0.486;2023-02-14T12:22:08;102935.91;;;7.73;77.44
71424;BME280;59240;51.370;-0.486;2023-02-14T12:31:24;102932.72;;;8.22;76.23
71424;BME280;59240;51.370;-0.486;2023-02-14T12:34:04;102905.88;;;8.20;76.49
71424;BME280;59240;51.370;-0.486;2023-02-14T12:57:50;103003.72;;;10.51;72.54
71424;BME280;59240;51.370;-0.486;2023-02-14T13:04:50;102972.03;;;10.87;73.59
71424;BME280;59240;51.370;-0.486;2023-02-14T13:10:43;102941.00;;;11.12;72.34
71424;BME280;59240;51.370;-0.486;2023-02-14T13:16:40;102927.25;;;11.28;71.36
71424;BME280;59240;51.370;-0.486;2023-02-14T13:19:48;102881.88;;;11.14;71.85
71424;BME280;59240;51.370;-0.486;2023-02-14T13:22:19;102969.44;;;11.77;71.73
71424;BME280;59240;51.370;-0.486;2023-02-14T13:24:50;102920.53;;;11.58;70.99
71424;BME280;59240;51.370;-0.486;2023-02-14T13:27:32;102932.78;;;11.65;70.64
71424;BME280;59240;51.370;-0.486;2023-02-14T13:30:41;102940.69;;;11.74;70.14
71424;BME280;59240;51.370;-0.486;2023-02-14T13:33:47;102862.84;;;11.24;69.80
71424;BME280;59240;51.370;-0.486;2023-02-14T13:36:56;102875.06;;;11.31;70.70
71424;BME280;59240;51.370;-0.486;2023-02-14T13:39:32;102896.97;;;11.50;69.53
71424;BME280;59240;51.370;-0.486;2023-02-14T13:42:10;102877.78;;;11.43;70.19
71424;BME280;59240;51.370;-0.486;2023-02-14T13:47:05;102876.97;;;11.47;69.32
71424;BME280;59240;51.370;-0.486;2023-02-14T13:49:44;102822.78;;;11.16;70.20
71424;BME280;59240;51.370;-0.486;2023-02-14T13:52:12;102864.75;;;11.45;69.95
71424;BME280;59240;51.370;-0.486;2023-02-14T13:54:44;102841.25;;;11.40;69.43
71424;BME280;59240;51.370;-0.486;2023-02-14T13:57:36;102887.53;;;11.66;69.53
71424;BME280;59240;51.370;-0.486;2023-02-14T14:00:49;102877.06;;;11.63;69.45
71424;BME280;59240;51.370;-0.486;2023-02-14T14:06:02;102822.06;;;11.37;69.90
71424;BME280;59240;51.370;-0.486;2023-02-14T14:11:09;102847.41;;;11.51;69.59
71424;BME280;59240;51.370;-0.486;2023-02-14T14:22:02;102895.66;;;12.04;69.25
71424;BME280;59240;51.370;-0.486;2023-02-14T14:24:53;102812.69;;;11.65;69.03
71424;BME280;59240;51.370;-0.486;2023-02-14T14:27:28;102821.47;;;11.79;69.22
71424;BME280;59240;51.370;-0.486;2023-02-14T14:30:34;102790.09;;;11.70;69.66
71424;BME280;59240;51.370;-0.486;2023-02-14T14:33:23;102851.28;;;12.12;69.25
71424;BME280;59240;51.370;-0.486;2023-02-14T14:35:58;102820.75;;;12.08;68.80
71424;BME280;59240;51.370;-0.486;2023-02-14T14:38:26;102880.16;;;12.45;68.90
71424;BME280;59240;51.370;-0.486;2023-02-14T14:40:56;102860.09;;;12.41;69.21
71424;BME280;59240;51.370;-0.486;2023-02-14T14:43:31;102790.31;;;12.10;68.05
71424;BME280;59240;51.370;-0.486;2023-02-14T14:46:02;102772.03;;;12.14;68.92
71424;BME280;59240;51.370;-0.486;2023-02-14T14:48:52;102765.97;;;12.23;68.80
71424;BME280;59240;51.370;-0.486;2023-02-14T14:51:23;102863.72;;;12.95;68.95
71424;BME280;59240;51.370;-0.486;2023-02-14T14:53:53;102863.75;;;13.07;69.70
71424;BME280;59240;51.370;-0.486;2023-02-14T14:56:26;102815.78;;;12.92;68.88
71424;BME280;59240;51.370;-0.486;2023-02-14T14:59:18;102752.97;;;12.75;66.89
71424;BME280;59240;51.370;-0.486;2023-02-14T15:01:45;102789.59;;;13.08;68.37
71424;BME280;59240;51.370;-0.486;2023-02-14T15:06:50;102808.78;;;13.50;67.31
71424;BME280;59240;51.370;-0.486;2023-02-14T15:09:20;102782.63;;;13.41;66.43
71424;BME280;59240;51.370;-0.486;2023-02-14T15:11:50;102797.44;;;13.60;66.53
71424;BME280;59240;51.370;-0.486;2023-02-14T15:14:39;102802.63;;;13.82;65.48
71424;BME280;59240;51.370;-0.486;2023-02-14T15:17:19;102819.09;;;14.10;65.27
71424;BME280;59240;51.370;-0.486;2023-02-14T15:19:48;102831.25;;;14.29;65.01
71424;BME280;59240;51.370;-0.486;2023-02-14T15:23:05;102804.16;;;14.35;64.51
71424;BME280;59240;51.370;-0.486;2023-02-14T15:25:21;102774.41;;;14.33;64.90
71424;BME280;59240;51.370;-0.486;2023-02-14T15:27:49;102830.91;;;14.92;65.11
71424;BME280;59240;51.370;-0.486;2023-02-14T15:30:36;102761.06;;;14.72;64.40
71424;BME280;59240;51.370;-0.486;2023-02-14T15:33:12;102761.75;;;14.99;62.32
71424;BME280;59240;51.370;-0.486;2023-02-14T15:35:39;102752.88;;;15.09;62.69
71424;BME280;59240;51.370;-0.486;2023-02-14T15:38:10;102739.63;;;15.23;62.17
71424;BME280;59240;51.370;-0.486;2023-02-14T15:40:42;102795.13;;;15.77;62.20
71424;BME280;59240;51.370;-0.486;2023-02-14T15:45:53;102783.47;;;15.98;60.38
71424;BME280;59240;51.370;-0.486;2023-02-14T15:48:31;102768.63;;;15.95;58.85
71424;BME280;59240;51.370;-0.486;2023-02-14T15:51:04;102812.84;;;16.30;59.97
71424;BME280;59240;51.370;-0.486;2023-02-14T15:56:17;102807.28;;;16.55;58.59
71424;BME280;59240;51.370;-0.486;2023-02-14T15:58:45;102772.41;;;16.39;58.75
71424;BME280;59240;51.370;-0.486;2023-02-14T16:01:12;102801.03;;;16.60;58.35
71424;BME280;59240;51.370;-0.486;2023-02-14T16:03:41;102765.50;;;16.30;57.88
71424;BME280;59240;51.370;-0.486;2023-02-14T16:06:38;102793.44;;;16.40;56.89
71424;BME280;59240;51.370;-0.486;2023-02-14T16:09:22;102769.13;;;16.23;57.85
71424;BME280;59240;51.370;-0.486;2023-02-14T16:11:49;102744.84;;;16.03;57.56
71424;BME280;59240;51.370;-0.486;2023-02-14T16:14:33;102747.63;;;15.94;57.18
71424;BME280;59240;51.370;-0.486;2023-02-14T16:19:40;102783.53;;;15.92;56.87
71424;BME280;59240;51.370;-0.486;2023-02-14T16:22:22;102787.25;;;15.78;56.96
71424;BME280;59240;51.370;-0.486;2023-02-14T16:24:49;102762.94;;;15.55;57.81
71424;BME280;59240;51.370;-0.486;2023-02-14T16:27:16;102750.81;;;15.42;57.47
71424;BME280;59240;51.370;-0.486;2023-02-14T16:29:48;102757.97;;;15.27;57.42
71424;BME280;59240;51.370;-0.486;2023-02-14T16:32:19;102765.97;;;15.14;57.46
71424;BME280;59240;51.370;-0.486;2023-02-14T16:34:49;102718.25;;;14.67;57.59
71424;BME280;59240;51.370;-0.486;2023-02-14T16:38:00;102741.09;;;14.56;57.68
71424;BME280;59240;51.370;-0.486;2023-02-14T16:40:29;102704.63;;;14.16;57.96
71424;BME280;59240;51.370;-0.486;2023-02-14T16:43:16;102784.00;;;14.38;58.27
71424;BME280;59240;51.370;-0.486;2023-02-14T16:45:48;102771.94;;;14.07;57.24
71424;BME280;59240;51.370;-0.486;2023-02-14T16:48:16;102687.50;;;13.45;58.48
71424;BME280;59240;51.370;-0.486;2023-02-14T16:50:59;102677.06;;;13.14;58.57
71424;BME280;59240;51.370;-0.486;2023-02-14T16:53:27;102721.59;;;13.21;59.17
71424;BME280;59240;51.370;-0.486;2023-02-14T16:55:56;102710.25;;;12.94;58.74
71424;BME280;59240;51.370;-0.486;2023-02-14T16:58:44;102698.94;;;12.66;59.50
71424;BME280;59240;51.370;-0.486;2023-02-14T17:02:04;102785.25;;;12.92;59.54
71424;BME280;59240;51.370;-0.486;2023-02-14T17:04:49;102711.09;;;12.27;60.67
71424;BME280;59240;51.370;-0.486;2023-02-14T17:07:16;102721.50;;;12.12;59.91
71424;BME280;59240;51.370;-0.486;2023-02-14T17:10:20;102694.34;;;11.72;60.40
71424;BME280;59240;51.370;-0.486;2023-02-14T17:16:33;102737.72;;;11.42;61.42
71424;BME280;59240;51.370;-0.486;2023-02-14T17:19:36;102728.91;;;11.25;61.24
71424;BME280;59240;51.370;-0.486;2023-02-14T17:22:20;102720.94;;;10.99;61.07
71424;BME280;59240;51.370;-0.486;2023-02-14T17:28:43;102721.41;;;10.55;61.93
71424;BME280;59240;51.370;-0.486;2023-02-14T17:31:29;102687.13;;;10.14;62.62
71424;BME280;59240;51.370;-0.486;2023-02-14T17:34:51;102775.19;;;10.46;63.46
71424;BME280;59240;51.370;-0.486;2023-02-14T17:44:17;102685.41;;;9.42;64.26
71424;BME280;59240;51.370;-0.486;2023-02-14T17:46:48;102696.50;;;9.28;63.38
71424;BME280;59240;51.370;-0.486;2023-02-14T17:50:24;102759.22;;;9.48;64.27
71424;BME280;59240;51.370;-0.486;2023-02-14T17:57:43;102691.41;;;8.79;64.38
71424;BME280;59240;51.370;-0.486;2023-02-14T18:01:37;102705.25;;;8.77;63.71
71424;BME280;59240;51.370;-0.486;2023-02-14T18:09:03;102652.22;;;8.16;64.96
71424;BME280;59240;51.370;-0.486;2023-02-14T22:37:09;102570.00;;;2.85;73.56
71424;BME280;59240;51.370;-0.486;2023-02-14T22:39:37;102554.31;;;2.79;72.51
71424;BME280;59240;51.370;-0.486;2023-02-14T22:42:45;102550.56;;;2.70;73.22
71424;BME280;59240;51.370;-0.486;2023-02-14T22:53:20;102553.97;;;2.69;73.33
71424;BME280;59240;51.370;-0.486;2023-02-14T22:59:36;102539.06;;;2.61;74.13
71424;BME280;59240;51.370;-0.486;2023-02-14T23:02:46;102520.56;;;2.49;73.76
71424;BME280;59240;51.370;-0.486;2023-02-14T23:05:37;102630.88;;;3.07;73.58
71424;BME280;59240;51.370;-0.486;2023-02-14T23:08:24;102571.03;;;2.67;74.54
71424;BME280;59240;51.370;-0.486;2023-02-14T23:18:50;102595.38;;;2.76;74.13
71424;BME280;59240;51.370;-0.486;2023-02-14T23:21:56;102560.28;;;2.55;74.58
71424;BME280;59240;51.370;-0.486;2023-02-14T23:25:05;102621.66;;;2.89;74.26
71424;BME280;59240;51.370;-0.486;2023-02-14T23:27:48;102570.66;;;2.58;73.76
71424;BME280;59240;51.370;-0.486;2023-02-14T23:30:17;102587.16;;;2.63;73.72
71424;BME280;59240;51.370;-0.486;2023-02-14T23:33:12;102536.97;;;2.30;74.13
71424;BME280;59240;51.370;-0.486;2023-02-14T23:36:03;102533.50;;;2.29;74.33
71424;BME280;59240;51.370;-0.486;2023-02-14T23:38:33;102581.69;;;2.54;73.84
71424;BME280;59240;51.370;-0.486;2023-02-14T23:41:10;102502.97;;;2.16;73.75
71424;BME280;59240;51.370;-0.486;2023-02-14T23:43:58;102525.78;;;2.29;73.92
71424;BME280;59240;51.370;-0.486;2023-02-14T23:46:28;102566.06;;;2.50;73.63
71424;BME280;59240;51.370;-0.486;2023-02-14T23:51:55;102505.44;;;2.13;73.79
71424;BME280;59240;51.370;-0.486;2023-02-14T23:54:24;102524.72;;;2.24;73.82
71424;BME280;59240;51.370;-0.486;2023-02-14T23:57:27;102599.47;;;2.70;74.89
